Time;durP1;ratioP1;P1;durP2;ratioP2;P2;SDS_P1;SDS_P2;PMS_P1;PMS_P2;Temp;Humidity;BMP_temperature;BMP_pressure;BME280_temperature;BME280_humidity;BME280_pressure;Samples;Min_cycle;Max_cycle;Signal;HPM_P1;HPM_P2
2024/01/03 00:00:29;;;;;;;1999.90;999.90;;;12.80;99.90;;;;;;5039650;28;20147;-76
2024/01/03 00:02:56;;;;;;;1999.90;999.90;;;12.80;99.90;;;;;;5056908;28;20071;-84
2024/01/03 00:05:23;;;;;;;1999.90;999.90;;;12.80;99.90;;;;;;5057486;28;20021;-81
2024/01/03 00:07:49;;;;;;;1999.90;999.90;;;12.80;99.90;;;;;;5055675;28;20028;-77
2024/01/03 00:10:45;;;;;;;1999.90;999.90;;;12.90;99.90;;;;;;5056304;28;20029;-74
2024/01/03 00:13:29;;;;;;;1999.90;999.90;;;13.00;99.90;;;;;;5055582;28;20086;-76
2024/01/03 00:16:12;;;;;;;1999.90;999.90;;;12.90;99.90;;;;;;5056480;28;20432;-83
2024/01/03 00:18:43;;;;;;;1999.90;999.90;;;12.90;99.90;;;;;;5056607;28;20400;-78
2024/01/03 00:21:10;;;;;;;1999.90;999.90;;;13.00;99.90;;;;;;5050817;28;20021;-77
2024/01/03 00:23:38;;;;;;;1999.90;999.90;;;13.00;99.90;;;;;;5055182;28;20104;-79
2024/01/03 00:26:09;;;;;;;1999.90;999.90;;;13.00;99.90;;;;;;5046952;28;20083;-78
2024/01/03 00:28:34;;;;;;;1999.90;999.90;;;13.00;99.90;;;;;;5041815;28;20026;-82
2024/01/03 00:31:01;;;;;;;1999.90;999.90;;;13.00;99.90;;;;;;5035350;28;20029;-80
2024/01/03 00:33:26;;;;;;;1999.90;999.90;;;13.00;99.90;;;;;;5055575;28;20067;-78
2024/01/03 00:35:52;;;;;;;1999.90;999.90;;;12.90;99.90;;;;;;5054526;28;20041;-76
2024/01/03 00:38:18;;;;;;;1999.90;999.90;;;12.90;99.90;;;;;;5055629;28;20059;-82
2024/01/03 00:40:53;;;;;;;1999.90;999.90;;;12.90;99.90;;;;;;5037513;28;20025;-77
2024/01/03 00:43:19;;;;;;;1999.90;999.90;;;12.90;99.90;;;;;;5054970;28;20056;-77
2024/01/03 00:45:47;;;;;;;1999.90;999.90;;;12.90;99.90;;;;;;5055458;28;20060;-82
2024/01/03 00:48:12;;;;;;;1999.90;999.90;;;12.90;99.90;;;;;;5054170;28;20112;-81
2024/01/03 00:50:38;;;;;;;1999.90;999.90;;;12.90;99.90;;;;;;5037007;28;20072;-82
2024/01/03 00:53:04;;;;;;;1999.90;999.90;;;12.90;99.90;;;;;;5057796;28;20108;-79
2024/01/03 00:55:30;;;;;;;1999.90;999.90;;;12.90;99.90;;;;;;5054958;28;20029;-80
2024/01/03 00:57:56;;;;;;;1999.90;999.90;;;12.90;99.90;;;;;;5054739;28;20486;-82
2024/01/03 01:00:22;;;;;;;1999.90;999.90;;;12.90;99.90;;;;;;5037328;28;20029;-78
2024/01/03 01:02:47;;;;;;;1999.90;999.90;;;13.00;99.90;;;;;;5055037;28;20048;-76
2024/01/03 01:05:13;;;;;;;1999.90;999.90;;;12.90;99.90;;;;;;5055158;28;20052;-82
2024/01/03 01:07:39;;;;;;;1999.90;999.90;;;12.90;99.90;;;;;;5055224;28;20480;-77
2024/01/03 01:10:05;;;;;;;1999.90;999.90;;;12.90;99.90;;;;;;5053886;28;20107;-78
2024/01/03 01:12:31;;;;;;;1999.90;999.90;;;12.90;99.90;;;;;;5054775;28;20484;-82
2024/01/03 01:14:59;;;;;;;1999.90;999.90;;;12.90;99.90;;;;;;5054345;28;20057;-77
2024/01/03 01:17:25;;;;;;;1999.90;999.90;;;12.90;99.90;;;;;;5054635;28;20026;-78
2024/01/03 01:19:51;;;;;;;1999.90;999.90;;;12.80;99.90;;;;;;5037622;28;20403;-78
2024/01/03 01:22:17;;;;;;;1999.90;999.90;;;12.80;99.90;;;;;;5054158;28;20104;-83
2024/01/03 01:24:42;;;;;;;1999.90;999.90;;;12.80;99.90;;;;;;5053557;28;20393;-85
2024/01/03 01:27:08;;;;;;;1999.90;999.90;;;12.70;99.90;;;;;;5046555;28;20108;-78
2024/01/03 01:29:34;;;;;;;1999.90;999.90;;;12.70;99.90;;;;;;5034283;28;20383;-84
2024/01/03 01:32:00;;;;;;;1999.90;999.90;;;12.70;99.90;;;;;;5042225;28;20025;-80
2024/01/03 01:34:26;;;;;;;1999.90;999.90;;;12.70;99.90;;;;;;5036568;28;20025;-82
2024/01/03 01:36:51;;;;;;;1999.90;999.90;;;12.70;99.90;;;;;;5053460;28;20104;-81
2024/01/03 01:39:17;;;;;;;1999.90;999.90;;;12.70;99.90;;;;;;5053825;28;20032;-80
2024/01/03 01:41:43;;;;;;;1999.90;999.90;;;12.70;99.90;;;;;;5053608;28;20025;-80
2024/01/03 01:44:08;;;;;;;1999.90;999.90;;;12.70;99.90;;;;;;5053620;28;20037;-80
2024/01/03 01:46:36;;;;;;;1999.90;999.90;;;12.60;99.90;;;;;;5054190;28;20017;-77
2024/01/03 01:49:04;;;;;;;1999.90;999.90;;;12.70;99.90;;;;;;5054277;28;20025;-81
2024/01/03 01:51:31;;;;;;;1999.90;999.90;;;12.70;99.90;;;;;;5053542;28;20039;-80
2024/01/03 01:53:57;;;;;;;1999.90;999.90;;;12.70;99.90;;;;;;5053658;28;20032;-81
2024/01/03 01:56:23;;;;;;;1999.90;999.90;;;12.70;99.90;;;;;;5053966;28;20396;-80
2024/01/03 01:58:50;;;;;;;1999.90;999.90;;;12.70;99.90;;;;;;5035641;28;20155;-83
2024/01/03 02:01:17;;;;;;;1999.90;999.90;;;12.80;99.90;;;;;;5044273;28;20016;-79
2024/01/03 02:03:43;;;;;;;1999.90;999.90;;;12.80;99.90;;;;;;5033412;28;20032;-77
2024/01/03 02:06:09;;;;;;;1999.90;999.90;;;12.90;99.90;;;;;;5033507;28;20032;-76
2024/01/03 02:08:35;;;;;;;1999.90;999.90;;;12.80;99.90;;;;;;5033011;28;20026;-82
2024/01/03 02:11:02;;;;;;;1999.90;999.90;;;12.90;99.90;;;;;;5047214;28;20108;-77
2024/01/03 02:13:28;;;;;;;1999.90;999.90;;;12.90;99.90;;;;;;5035230;28;20571;-78
2024/01/03 02:15:54;;;;;;;1999.90;999.90;;;12.90;99.90;;;;;;5053220;28;20123;-80
2024/01/03 02:18:20;;;;;;;1999.90;999.90;;;12.90;99.90;;;;;;5053327;28;20059;-79
2024/01/03 02:20:46;;;;;;;1999.90;999.90;;;13.00;99.90;;;;;;5048599;28;20029;-79
2024/01/03 02:23:12;;;;;;;1999.90;999.90;;;13.00;99.90;;;;;;5053098;28;20017;-76
2024/01/03 02:25:38;;;;;;;1999.90;999.90;;;13.10;99.90;;;;;;5048331;28;20434;-77
2024/01/03 02:28:08;;;;;;;1999.90;999.90;;;13.10;99.90;;;;;;5041689;28;20049;-78
2024/01/03 02:30:34;;;;;;;1999.90;999.90;;;13.10;99.90;;;;;;5033411;28;20105;-86
2024/01/03 02:33:00;;;;;;;1999.90;999.90;;;13.10;99.90;;;;;;5047691;28;20579;-81
2024/01/03 02:35:25;;;;;;;1999.90;999.90;;;13.20;99.90;;;;;;5052868;28;20412;-79
2024/01/03 02:37:51;;;;;;;1999.90;999.90;;;13.20;99.90;;;;;;5052488;28;20099;-77
2024/01/03 02:40:16;;;;;;;1999.90;999.90;;;13.20;99.90;;;;;;5034859;28;20029;-79
2024/01/03 02:42:42;;;;;;;1999.90;999.90;;;13.20;99.90;;;;;;5052892;28;20021;-77
2024/01/03 02:45:08;;;;;;;1999.90;999.90;;;13.20;99.90;;;;;;5052696;28;20029;-81
2024/01/03 02:47:33;;;;;;;1999.90;999.90;;;13.20;99.90;;;;;;5052765;28;20021;-76
2024/01/03 02:49:59;;;;;;;1999.90;999.90;;;13.20;99.90;;;;;;5051830;28;20476;-82
2024/01/03 02:52:28;;;;;;;1999.90;999.90;;;13.20;99.90;;;;;;5052581;28;20082;-77
2024/01/03 02:54:54;;;;;;;1999.90;999.90;;;13.20;99.90;;;;;;5052845;28;20071;-78
2024/01/03 02:57:20;;;;;;;1999.90;999.90;;;13.20;99.90;;;;;;5034351;28;20067;-79
2024/01/03 02:59:45;;;;;;;1999.90;999.90;;;13.10;99.90;;;;;;5052293;28;20051;-77
2024/01/03 03:02:11;;;;;;;1999.90;999.90;;;13.10;99.90;;;;;;5052407;28;20029;-84
2024/01/03 03:04:37;;;;;;;1999.90;999.90;;;13.10;99.90;;;;;;5034787;28;20028;-77
2024/01/03 03:07:02;;;;;;;1999.90;999.90;;;13.10;99.90;;;;;;5051904;28;20025;-76
2024/01/03 03:09:28;;;;;;;1999.90;999.90;;;13.10;99.90;;;;;;5051439;28;20029;-79
2024/01/03 03:11:54;;;;;;;1999.90;999.90;;;13.10;99.90;;;;;;5034400;28;20118;-83
2024/01/03 03:14:20;;;;;;;1999.90;999.90;;;13.10;99.90;;;;;;5052480;28;20035;-80
2024/01/03 03:16:46;;;;;;;1999.90;999.90;;;13.10;99.90;;;;;;5052651;28;20029;-79
2024/01/03 03:19:12;;;;;;;1999.90;999.90;;;13.10;99.90;;;;;;5052123;28;20025;-86
2024/01/03 03:21:38;;;;;;;1999.90;999.90;;;13.10;99.90;;;;;;5051664;28;20032;-83
2024/01/03 03:24:03;;;;;;;1999.90;999.90;;;13.10;99.90;;;;;;5052316;28;20057;-85
2024/01/03 03:26:29;;;;;;;1999.90;999.90;;;13.10;99.90;;;;;;5043522;28;20037;-76
2024/01/03 03:28:54;;;;;;;1999.90;999.90;;;13.00;99.90;;;;;;5046045;28;20025;-80
2024/01/03 03:31:20;;;;;;;1999.90;999.90;;;13.00;99.90;;;;;;5052437;28;20029;-78
2024/01/03 03:33:46;;;;;;;1999.90;999.90;;;12.90;99.90;;;;;;5052243;28;20029;-85
2024/01/03 03:36:15;;;;;;;1999.90;999.90;;;13.00;99.90;;;;;;5052026;28;20500;-75
2024/01/03 03:38:41;;;;;;;1999.90;999.90;;;13.10;99.90;;;;;;5052311;28;20029;-74
2024/01/03 03:41:10;;;;;;;1999.90;999.90;;;13.20;99.90;;;;;;5052017;28;20024;-84
2024/01/03 03:43:37;;;;;;;1999.90;999.90;;;13.10;99.90;;;;;;5052501;28;20070;-80
2024/01/03 03:46:03;;;;;;;1999.90;999.90;;;13.10;99.90;;;;;;5052028;28;20029;-78
2024/01/03 03:48:28;;;;;;;1999.90;999.90;;;13.10;99.90;;;;;;5051855;28;20025;-82
2024/01/03 03:50:54;;;;;;;1999.90;999.90;;;13.20;99.90;;;;;;5051673;28;20099;-79
2024/01/03 03:53:19;;;;;;;1999.90;999.90;;;13.20;99.90;;;;;;5052012;28;20409;-79
2024/01/03 03:55:45;;;;;;;1999.90;999.90;;;13.20;99.90;;;;;;5051550;28;20025;-78
2024/01/03 03:58:11;;;;;;;1999.90;999.90;;;13.20;99.90;;;;;;5051779;28;20021;-76
2024/01/03 04:00:37;;;;;;;1999.90;999.90;;;13.20;99.90;;;;;;5052953;28;20033;-76
2024/01/03 04:03:06;;;;;;;1999.90;999.90;;;13.20;99.90;;;;;;5055611;28;20056;-81
2024/01/03 04:05:33;;;;;;;1999.90;999.90;;;13.20;99.90;;;;;;5055637;28;20541;-79
2024/01/03 04:07:59;;;;;;;1999.90;999.90;;;13.10;99.90;;;;;;5055633;28;20021;-83
2024/01/03 04:10:25;;;;;;;1999.90;999.90;;;13.10;99.90;;;;;;5037147;28;20037;-82
2024/01/03 04:12:52;;;;;;;1999.90;999.90;;;13.00;99.90;;;;;;5055560;28;20025;-77
2024/01/03 04:15:18;;;;;;;1999.90;999.90;;;12.90;99.90;;;;;;5055222;28;20049;-80
2024/01/03 04:17:44;;;;;;;1999.90;999.90;;;12.90;99.90;;;;;;5037549;28;20542;-80
2024/01/03 04:20:10;;;;;;;1999.90;999.90;;;12.80;99.90;;;;;;5054330;28;20055;-77
2024/01/03 04:22:37;;;;;;;1999.90;999.90;;;12.90;99.90;;;;;;5054649;28;20399;-80
2024/01/03 04:25:02;;;;;;;1999.90;999.90;;;13.00;99.90;;;;;;5054432;28;20029;-80
2024/01/03 04:27:28;;;;;;;1999.90;999.90;;;13.10;99.90;;;;;;5045906;28;20025;-84
2024/01/03 04:29:53;;;;;;;1999.90;999.90;;;13.10;99.90;;;;;;5035523;28;20053;-77
2024/01/03 04:32:19;;;;;;;1999.90;999.90;;;12.80;99.90;;;;;;5045668;28;20395;-78
2024/01/03 04:34:45;;;;;;;1999.90;999.90;;;12.60;99.90;;;;;;5055085;28;20063;-78
2024/01/03 04:37:10;;;;;;;1999.90;999.90;;;12.50;99.90;;;;;;5054930;28;20107;-80
2024/01/03 04:39:36;;;;;;;1999.90;999.90;;;12.40;99.90;;;;;;5054507;28;20024;-78
2024/01/03 04:42:02;;;;;;;1999.90;999.90;;;12.40;99.90;;;;;;5036828;28;20444;-80
2024/01/03 04:44:27;;;;;;;1999.90;999.90;;;12.40;99.90;;;;;;5055065;28;20021;-79
2024/01/03 04:46:53;;;;;;;1999.90;999.90;;;12.50;99.90;;;;;;5054787;28;20017;-83
2024/01/03 04:49:19;;;;;;;1999.90;999.90;;;12.60;99.90;;;;;;5054745;28;20117;-77
2024/01/03 04:51:44;;;;;;;1999.90;999.90;;;12.60;99.90;;;;;;5054749;28;20040;-76
2024/01/03 04:54:10;;;;;;;1999.90;999.90;;;12.60;99.90;;;;;;5054923;28;20025;-80
2024/01/03 04:56:35;;;;;;;1999.90;999.90;;;12.60;99.90;;;;;;5054722;28;20051;-81
2024/01/03 04:59:03;;;;;;;1999.90;999.90;;;12.60;99.90;;;;;;5036459;28;20395;-78
2024/01/03 05:01:29;;;;;;;1999.90;999.90;;;12.70;99.90;;;;;;5054633;28;20182;-81
2024/01/03 05:03:54;;;;;;;1999.90;999.90;;;12.80;99.90;;;;;;5054528;28;20024;-80
2024/01/03 05:06:20;;;;;;;1999.90;999.90;;;12.80;99.90;;;;;;5054720;28;20392;-80
2024/01/03 05:08:46;;;;;;;1999.90;999.90;;;12.90;99.90;;;;;;5054355;28;20051;-80
2024/01/03 05:11:12;;;;;;;1999.90;999.90;;;13.00;99.90;;;;;;5054002;28;20060;-81
2024/01/03 05:13:37;;;;;;;1999.90;999.90;;;13.00;99.90;;;;;;5053370;28;20037;-80
2024/01/03 05:16:03;;;;;;;1999.90;999.90;;;13.00;99.90;;;;;;5054527;28;20049;-80
2024/01/03 05:18:29;;;;;;;1999.90;999.90;;;13.00;99.90;;;;;;5054445;28;20072;-87
2024/01/03 05:20:54;;;;;;;1999.90;999.90;;;13.00;99.90;;;;;;5046221;28;20009;-78
2024/01/03 05:23:20;;;;;;;1999.90;999.90;;;13.00;99.90;;;;;;5070351;28;20505;-75
2024/01/03 05:25:47;;;;;;;1999.90;999.90;;;13.00;99.90;;;;;;5044681;28;20030;-83
2024/01/03 05:28:13;;;;;;;1999.90;999.90;;;13.00;99.90;;;;;;5042077;28;20030;-77
2024/01/03 05:30:40;;;;;;;1999.90;999.90;;;13.00;99.90;;;;;;5034451;28;20392;-76
2024/01/03 05:33:05;;;;;;;1999.90;999.90;;;13.00;99.90;;;;;;5048771;28;20484;-79
2024/01/03 05:35:31;;;;;;;1999.90;999.90;;;13.00;99.90;;;;;;5052747;28;20021;-80
2024/01/03 05:37:57;;;;;;;1999.90;999.90;;;13.10;99.90;;;;;;5053439;28;20029;-80
2024/01/03 05:40:22;;;;;;;1999.90;999.90;;;13.10;99.90;;;;;;5053622;28;20575;-83
2024/01/03 05:42:49;;;;;;;1999.90;999.90;;;13.00;99.90;;;;;;5053563;28;20025;-76
2024/01/03 05:45:14;;;;;;;1999.90;999.90;;;12.90;99.90;;;;;;5053639;28;20031;-78
2024/01/03 05:47:40;;;;;;;1999.90;999.90;;;12.80;99.90;;;;;;5053291;28;20103;-77
2024/01/03 05:50:08;;;;;;;1999.90;999.90;;;12.70;99.90;;;;;;5053812;28;20029;-82
2024/01/03 05:52:35;;;;;;;1999.90;999.90;;;12.70;99.90;;;;;;5053636;28;20029;-81
2024/01/03 05:55:01;;;;;;;1999.90;999.90;;;12.70;99.90;;;;;;5053906;28;20025;-85
2024/01/03 05:57:26;;;;;;;1999.90;999.90;;;12.60;99.90;;;;;;5053181;28;20462;-77
2024/01/03 05:59:52;;;;;;;1999.90;999.90;;;12.60;99.90;;;;;;5052976;28;20025;-79
2024/01/03 06:02:18;;;;;;;1999.90;999.90;;;12.50;99.90;;;;;;5052159;28;20025;-80
2024/01/03 06:04:44;;;;;;;1999.90;999.90;;;12.40;99.90;;;;;;5053299;28;20127;-78
2024/01/03 06:07:10;;;;;;;1999.90;999.90;;;12.40;99.90;;;;;;5053441;28;20067;-79
2024/01/03 06:09:36;;;;;;;1999.90;999.90;;;12.40;99.90;;;;;;5052651;28;20029;-77
2024/01/03 06:12:02;;;;;;;1999.90;999.90;;;12.40;99.90;;;;;;5044982;28;20480;-83
2024/01/03 06:14:27;;;;;;;1999.90;999.90;;;12.40;99.90;;;;;;5040169;28;20025;-83
2024/01/03 06:16:53;;;;;;;1999.90;999.90;;;12.40;99.90;;;;;;5032060;28;20041;-77
2024/01/03 06:19:19;;;;;;;1999.90;999.90;;;12.40;99.90;;;;;;5033264;28;20496;-80
2024/01/03 06:21:44;;;;;;;1999.90;999.90;;;12.40;99.90;;;;;;5046028;28;20108;-76
2024/01/03 06:24:10;;;;;;;1999.90;999.90;;;12.40;99.90;;;;;;5051285;28;20036;-81
2024/01/03 06:26:36;;;;;;;1999.90;999.90;;;12.30;99.90;;;;;;5047978;28;20108;-76
2024/01/03 06:29:02;;;;;;;1999.90;999.90;;;12.30;99.90;;;;;;5050738;28;20017;-77
2024/01/03 06:31:27;;;;;;;1999.90;999.90;;;12.30;99.90;;;;;;5034294;28;20029;-77
2024/01/03 06:33:53;;;;;;;1999.90;999.90;;;12.40;99.90;;;;;;5052587;28;20025;-80
2024/01/03 06:36:19;;;;;;;1999.90;999.90;;;12.50;99.90;;;;;;5050471;28;20040;-77
2024/01/03 06:38:45;;;;;;;1999.90;999.90;;;12.50;99.90;;;;;;5064309;28;20029;-76
2024/01/03 06:41:11;;;;;;;1999.90;999.90;;;12.50;99.90;;;;;;5072226;28;20051;-77
2024/01/03 06:43:36;;;;;;;1999.90;999.90;;;12.40;99.90;;;;;;5071965;28;20024;-76
2024/01/03 06:46:02;;;;;;;1999.90;999.90;;;12.40;99.90;;;;;;5054426;28;20174;-77
2024/01/03 06:48:28;;;;;;;1999.90;999.90;;;12.40;99.90;;;;;;5071745;28;20025;-80
2024/01/03 06:50:53;;;;;;;1999.90;999.90;;;12.40;99.90;;;;;;5071102;28;20121;-76
2024/01/03 06:53:19;;;;;;;1999.90;999.90;;;12.40;99.90;;;;;;5071805;28;20036;-77
2024/01/03 06:55:45;;;;;;;1999.90;999.90;;;12.50;99.90;;;;;;5072149;28;20081;-76
2024/01/03 06:58:10;;;;;;;1999.90;999.90;;;12.50;99.90;;;;;;5071913;28;20028;-80
2024/01/03 07:00:36;;;;;;;1999.90;999.90;;;12.50;99.90;;;;;;5052624;28;20025;-80
2024/01/03 07:03:02;;;;;;;1999.90;999.90;;;12.40;99.90;;;;;;5044769;28;20092;-77
2024/01/03 07:05:27;;;;;;;1999.90;999.90;;;12.40;99.90;;;;;;5024267;28;20020;-77
2024/01/03 07:07:53;;;;;;;1999.90;999.90;;;12.50;99.90;;;;;;5046048;28;20404;-82
2024/01/03 07:10:18;;;;;;;1999.90;999.90;;;12.50;99.90;;;;;;5024695;28;20029;-77
2024/01/03 07:12:44;;;;;;;1999.90;999.90;;;12.60;99.90;;;;;;5038969;28;20108;-79
2024/01/03 07:15:10;;;;;;;1999.90;999.90;;;12.60;99.90;;;;;;5051201;28;20048;-79
2024/01/03 07:17:35;;;;;;;1999.90;999.90;;;12.70;99.90;;;;;;5052245;28;20041;-80
2024/01/03 07:20:01;;;;;;;1999.90;999.90;;;12.70;99.90;;;;;;5051522;28;20028;-76
2024/01/03 07:22:27;;;;;;;1999.90;999.90;;;12.70;99.90;;;;;;5043498;28;20548;-77
2024/01/03 07:24:52;;;;;;;1999.90;999.90;;;12.60;99.90;;;;;;5048697;28;20069;-80
2024/01/03 07:27:18;;;;;;;1999.90;999.90;;;12.60;99.90;;;;;;5028265;28;20037;-79
2024/01/03 07:29:43;;;;;;;1999.90;999.90;;;12.60;99.90;;;;;;5049792;28;20487;-76
2024/01/03 07:32:09;;;;;;;1999.90;999.90;;;12.60;99.90;;;;;;5049824;28;20109;-79
2024/01/03 07:34:35;;;;;;;1999.90;999.90;;;12.60;99.90;;;;;;5050210;28;20021;-76
2024/01/03 07:37:00;;;;;;;1999.90;999.90;;;12.60;99.90;;;;;;5053267;28;20033;-81
2024/01/03 07:39:26;;;;;;;1999.90;999.90;;;12.60;99.90;;;;;;5050328;28;20047;-79
2024/01/03 07:41:51;;;;;;;1999.90;999.90;;;12.60;99.90;;;;;;5046596;28;20084;-79
2024/01/03 07:44:17;;;;;;;1999.90;999.90;;;12.70;99.90;;;;;;5052268;28;20021;-81
2024/01/03 07:46:43;;;;;;;1999.90;999.90;;;12.70;99.90;;;;;;5034243;28;20033;-77
2024/01/03 07:49:10;;;;;;;1999.90;999.90;;;12.60;99.90;;;;;;5053820;28;20503;-76
2024/01/03 07:51:38;;;;;;;1999.90;999.90;;;12.70;99.90;;;;;;5050541;28;20025;-81
2024/01/03 07:54:07;;;;;;;1999.90;999.90;;;12.60;99.90;;;;;;5064615;28;20510;-81
2024/01/03 07:56:32;;;;;;;1999.90;999.90;;;12.60;99.90;;;;;;5054275;28;20075;-76
2024/01/03 07:58:58;;;;;;;1999.90;999.90;;;12.60;99.90;;;;;;5059858;28;20040;-78
2024/01/03 08:01:23;;;;;;;1999.90;999.90;;;12.60;99.90;;;;;;5042892;28;21580;-76
2024/01/03 08:03:49;;;;;;;1999.90;999.90;;;12.70;99.90;;;;;;5035223;28;20013;-78
2024/01/03 08:06:20;;;;;;;1999.90;999.90;;;12.80;99.90;;;;;;5033729;28;20032;-76
2024/01/03 08:08:46;;;;;;;1999.90;999.90;;;12.90;99.90;;;;;;5049190;28;20059;-76
2024/01/03 08:11:11;;;;;;;1999.90;999.90;;;13.00;99.90;;;;;;5053040;28;20068;-79
2024/01/03 08:13:37;;;;;;;1999.90;999.90;;;13.00;99.90;;;;;;5053317;28;20057;-76
2024/01/03 08:16:06;;;;;;;1999.90;999.90;;;13.00;99.90;;;;;;5051304;28;20123;-78
2024/01/03 08:18:32;;;;;;;1999.90;999.90;;;13.00;99.90;;;;;;5052696;28;20036;-79
2024/01/03 08:20:58;;;;;;;1999.90;999.90;;;13.10;99.90;;;;;;5048608;28;20021;-76
2024/01/03 08:23:24;;;;;;;1999.90;999.90;;;13.20;99.90;;;;;;5051821;28;20116;-76
2024/01/03 08:25:49;;;;;;;1999.90;999.90;;;13.20;99.90;;;;;;5033405;28;20033;-79
2024/01/03 08:28:15;;;;;;;1999.90;999.90;;;13.20;99.90;;;;;;5050321;28;20475;-76
2024/01/03 08:30:40;;;;;;;1999.90;999.90;;;13.10;99.90;;;;;;5047925;28;21055;-79
2024/01/03 08:33:06;;;;;;;1999.90;999.90;;;13.10;99.90;;;;;;5034103;28;20040;-76
2024/01/03 08:35:32;;;;;;;1999.90;999.90;;;13.10;99.90;;;;;;5051811;28;20037;-76
2024/01/03 08:37:57;;;;;;;1999.90;999.90;;;13.00;99.90;;;;;;5050899;28;20459;-76
2024/01/03 08:40:24;;;;;;;1999.90;999.90;;;12.90;99.90;;;;;;5030491;28;20491;-76
2024/01/03 08:42:49;;;;;;;1999.90;999.90;;;13.00;99.90;;;;;;5048094;28;20491;-79
2024/01/03 08:45:15;;;;;;;1999.90;999.90;;;13.10;99.90;;;;;;5048983;28;20021;-78
2024/01/03 08:47:41;;;;;;;1999.90;999.90;;;13.10;99.90;;;;;;5052336;28;20104;-76
2024/01/03 08:50:07;;;;;;;1999.90;999.90;;;13.20;99.90;;;;;;5033359;28;20036;-79
2024/01/03 08:52:33;;;;;;;1999.90;999.90;;;13.20;99.90;;;;;;5052182;28;20351;-76
2024/01/03 08:54:59;;;;;;;1999.90;999.90;;;13.30;99.90;;;;;;5051508;28;20028;-77
2024/01/03 08:57:25;;;;;;;1999.90;999.90;;;13.30;99.90;;;;;;5052462;28;20138;-85
2024/01/03 08:59:50;;;;;;;1999.90;999.90;;;13.50;99.90;;;;;;5033961;28;20538;-74
2024/01/03 09:02:16;;;;;;;1999.90;999.90;;;13.50;99.90;;;;;;5050898;28;20032;-75
2024/01/03 09:04:42;;;;;;;1999.90;999.90;;;13.50;99.90;;;;;;5048704;28;20029;-75
2024/01/03 09:07:07;;;;;;;1999.90;999.90;;;13.60;99.90;;;;;;5048854;28;20032;-75
2024/01/03 09:09:33;;;;;;;1999.90;999.90;;;13.60;99.90;;;;;;5050987;28;20446;-82
2024/01/03 09:11:59;;;;;;;1999.90;999.90;;;13.60;99.90;;;;;;5041016;28;20488;-82
2024/01/03 09:14:24;;;;;;;1999.90;999.90;;;13.60;99.90;;;;;;5048280;28;20468;-79
2024/01/03 09:16:51;;;;;;;1999.90;999.90;;;13.60;99.90;;;;;;5052123;28;20052;-75
2024/01/03 09:19:16;;;;;;;1999.90;999.90;;;13.80;99.90;;;;;;5052089;28;20021;-75
2024/01/03 09:21:46;;;;;;;1999.90;999.90;;;14.10;99.90;;;;;;5033996;28;20021;-75
2024/01/03 09:24:11;;;;;;;1999.90;999.90;;;14.20;99.90;;;;;;5050384;28;20029;-75
2024/01/03 09:26:37;;;;;;;1999.90;999.90;;;14.30;99.90;;;;;;5048189;28;20446;-75
2024/01/03 09:29:04;;;;;;;1999.90;999.90;;;14.30;99.90;;;;;;5049108;28;20115;-75
2024/01/03 09:31:31;;;;;;;1999.90;999.90;;;14.10;99.90;;;;;;5049232;28;20033;-77
2024/01/03 09:33:57;;;;;;;1999.90;999.90;;;14.00;99.90;;;;;;5050089;28;20510;-76
2024/01/03 09:36:22;;;;;;;1999.90;999.90;;;14.00;99.90;;;;;;5046739;28;20051;-79
2024/01/03 09:38:49;;;;;;;1999.90;999.90;;;14.10;99.90;;;;;;5047414;28;20017;-75
2024/01/03 09:41:15;;;;;;;1999.90;999.90;;;14.20;99.90;;;;;;5049432;28;20021;-75
2024/01/03 09:43:42;;;;;;;1999.90;999.90;;;14.30;99.90;;;;;;5049830;28;20021;-78
2024/01/03 09:46:11;;;;;;;1999.90;999.90;;;14.30;99.90;;;;;;5043247;28;20454;-75
2024/01/03 09:48:41;;;;;;;1999.90;999.90;;;14.20;99.90;;;;;;5048133;28;20060;-75
2024/01/03 09:51:10;;;;;;;1999.90;999.90;;;14.10;99.90;;;;;;5041894;28;20103;-84
2024/01/03 09:53:37;;;;;;;1999.90;999.90;;;14.10;99.90;;;;;;5024539;28;20021;-75
2024/01/03 09:56:03;;;;;;;1999.90;999.90;;;14.20;99.90;;;;;;5039573;28;20079;-75
2024/01/03 09:58:28;;;;;;;1999.90;999.90;;;14.60;99.90;;;;;;5035119;28;20487;-79
2024/01/03 10:00:54;;;;;;;1999.90;999.90;;;14.70;99.90;;;;;;5050277;28;20036;-75
2024/01/03 10:03:20;;;;;;;1999.90;999.90;;;14.70;99.90;;;;;;5051443;28;20074;-77
2024/01/03 10:05:46;;;;;;;1999.90;999.90;;;14.80;99.90;;;;;;5040134;28;20033;-74
2024/01/03 10:08:19;;;;;;;1999.90;999.90;;;14.60;99.90;;;;;;5033484;28;20035;-74
2024/01/03 10:10:45;;;;;;;1999.90;999.90;;;14.40;99.90;;;;;;5050656;28;20033;-78
2024/01/03 10:13:17;;;;;;;1999.90;999.90;;;14.10;99.90;;;;;;5050913;28;20498;-74
2024/01/03 10:15:47;;;;;;;1999.90;999.90;;;13.90;99.90;;;;;;5013124;28;20049;-78
2024/01/03 10:18:17;;;;;;;1999.90;999.90;;;13.60;99.90;;;;;;5050610;28;20119;-74
2024/01/03 10:20:43;;;;;;;1999.90;999.90;;;12.90;99.90;;;;;;5050658;28;20021;-75
2024/01/03 10:23:14;;;;;;;1999.90;999.90;;;12.60;99.90;;;;;;5049984;28;20067;-74
2024/01/03 10:25:43;;;;;;;1999.90;999.90;;;12.60;99.90;;;;;;5048037;28;20027;-76
2024/01/03 10:28:16;;;;;;;1999.90;999.90;;;12.60;99.90;;;;;;5042715;28;20082;-74
2024/01/03 10:30:42;;;;;;;1999.90;999.90;;;12.60;99.90;;;;;;5051769;28;20036;-75
2024/01/03 10:33:09;;;;;;;1999.90;999.90;;;12.60;99.90;;;;;;5033337;28;20043;-76
2024/01/03 10:35:41;;;;;;;1999.90;999.90;;;12.60;99.90;;;;;;5070364;28;20108;-74
2024/01/03 10:38:06;;;;;;;1999.90;999.90;;;12.20;99.90;;;;;;5048297;28;20025;-74
2024/01/03 10:40:34;;;;;;;1999.90;999.90;;;12.00;99.90;;;;;;5061222;28;20303;-75
2024/01/03 10:43:00;;;;;;;1999.90;999.90;;;11.90;99.90;;;;;;5051118;28;20026;-74
2024/01/03 10:45:27;;;;;;;1999.90;999.90;;;11.70;99.90;;;;;;5048427;28;20075;-75
2024/01/03 10:47:53;;;;;;;1999.90;999.90;;;11.50;99.90;;;;;;5018884;28;20037;-74
2024/01/03 10:50:20;;;;;;;1999.90;999.90;;;11.50;99.90;;;;;;5063886;28;20035;-74
2024/01/03 10:52:47;;;;;;;1999.90;999.90;;;11.50;99.90;;;;;;5070254;28;20035;-74
2024/01/03 10:55:18;;;;;;;1999.90;999.90;;;11.70;99.90;;;;;;5070135;28;20036;-75
2024/01/03 10:57:55;;;;;;;1999.90;999.90;;;11.80;99.90;;;;;;5051900;28;20126;-74
2024/01/03 11:00:25;;;;;;;1999.90;999.90;;;11.80;99.90;;;;;;5024972;28;20388;-75
2024/01/03 11:03:02;;;;;;;1999.90;999.90;;;11.80;99.90;;;;;;5049529;28;20495;-73
2024/01/03 11:05:43;;;;;;;1999.90;999.90;;;11.80;99.90;;;;;;5050712;28;20025;-74
2024/01/03 11:08:12;;;;;;;1999.90;999.90;;;11.80;99.90;;;;;;5050460;28;20492;-75
2024/01/03 11:10:51;;;;;;;1999.90;999.90;;;11.80;99.90;;;;;;5050624;28;20066;-75
2024/01/03 11:13:33;;;;;;;1999.90;999.90;;;11.70;99.90;;;;;;5053389;28;20020;-74
2024/01/03 11:16:02;;;;;;;1999.90;999.90;;;11.70;99.90;;;;;;5036648;28;20103;-82
2024/01/03 11:18:40;;;;;;;1999.90;999.90;;;11.80;99.90;;;;;;5054795;28;20021;-77
2024/01/03 11:21:21;;;;;;;1999.90;999.90;;;11.80;99.90;;;;;;5041819;28;20021;-76
2024/01/03 11:23:46;;;;;;;1999.90;999.90;;;11.70;99.90;;;;;;5053762;28;20025;-75
2024/01/03 11:26:12;;;;;;;1999.90;999.90;;;11.90;99.90;;;;;;5050721;28;20099;-76
2024/01/03 11:28:38;;;;;;;1999.90;999.90;;;12.00;99.90;;;;;;5044400;28;20031;-75
2024/01/03 11:31:06;;;;;;;1999.90;999.90;;;12.10;99.90;;;;;;5047639;28;20060;-75
2024/01/03 11:33:38;;;;;;;1999.90;999.90;;;12.10;99.90;;;;;;5048721;28;20330;-76
2024/01/03 11:36:05;;;;;;;1999.90;999.90;;;12.30;99.90;;;;;;5053159;28;20029;-76
2024/01/03 11:38:41;;;;;;;1999.90;999.90;;;12.50;99.90;;;;;;5046975;28;20036;-75
2024/01/03 11:41:08;;;;;;;1999.90;999.90;;;12.50;99.90;;;;;;5036248;28;20035;-77
2024/01/03 11:43:34;;;;;;;1999.90;999.90;;;12.50;99.90;;;;;;5055049;28;20063;-78
2024/01/03 11:46:10;;;;;;;1999.90;999.90;;;12.80;99.90;;;;;;5056079;28;20033;-76
2024/01/03 11:48:37;;;;;;;1999.90;999.90;;;13.00;99.90;;;;;;5054909;28;20029;-78
2024/01/03 11:51:24;;;;;;;1999.90;999.90;;;13.30;99.90;;;;;;5062140;28;20154;-75
2024/01/03 11:53:51;;;;;;;1999.90;999.90;;;13.60;99.90;;;;;;5039618;28;20291;-76
2024/01/03 11:56:32;;;;;;;1999.90;999.90;;;13.80;99.90;;;;;;5047844;28;20108;-76